Strona główna
METAR-TAF:

METAR-TAF

Lotnisko :

Port lotniczy Ko Samui

Ko Samui, Tajlandia

Szerokość geograficzna: 09-32-52N, Długość geograficzna: 100-03-44E, wysokość: 20 m

Aktualna obserwacja pogody

Raport powstał 51 minut temu, godzina 00:00 UTC
Wiatr 4 kt od południe
Temperatura 27°C
Wilgotność 89%
Ciśnienie 1012 hPa
Widzialność 10 km lub więcej
Mało chmury na wysokości 2000 ft

METAR: VTSM 130000Z 18004KT 9999 FEW020 27/25 Q1012 NOSIG

czas: 07:51 (00:51 UTC)

Prognoza

Raport powstał 1 godzina i 51 minut temu, godzina 23:00 UTC
Prognoza ważna od 13 godzina 00 UTC do 13 godzina 24 UTC
Wiatr 8 kt od wschodnio-południowy wschód
Widzialność 10 km lub więcej
Mało chmury na wysokości 2000 ft

TAF: VTSM 122300Z 1300/1324 12008KT 9999 FEW020

Obserwacja i prognoza pogody dla ponad 4000 lotnisk (raport METAR i TAF).

Dostępne stacje oznaczono żółtymi i czerwonymi punktami na mapie.

Najedź kursorem aby zobaczyć nazwę stacji.

Kliknij aby zobaczyć obserwacje i prognozy pogody.

Aby zmienić mapę: kliknij na zielony przycisk z czarnym krzyżykiem, aby powiększyć; na zielony przycisk z myślnikiem, aby pomniejszyć; na zielone strzałki, aby przejść do map sąsiednich.


METAR-TAF: